Time;durP1;ratioP1;P1;durP2;ratioP2;P2;SDS_P1;SDS_P2;PMS_P1;PMS_P2;Temp;Humidity;BMP_temperature;BMP_pressure;BME280_temperature;BME280_humidity;BME280_pressure;Samples;Min_cycle;Max_cycle;Signal;HPM_P1;HPM_P2
2021/06/10 00:01:37;;;;;;;33.13;26.23;;;;;;;;;;5031621;28;20049;-62
2021/06/10 00:04:22;;;;;;;25.10;20.95;;;;;;;;;;5034807;28;20050;-62
2021/06/10 00:07:08;;;;;;;29.98;24.00;;;;;;;;;;5035027;28;20487;-62
2021/06/10 00:09:53;;;;;;;30.85;25.13;;;;;;;;;;5034853;28;20053;-62
2021/06/10 00:12:38;;;;;;;36.03;27.10;;;;;;;;;;5019933;28;20077;-62
2021/06/10 00:15:25;;;;;;;42.03;31.73;;;;;;;;;;5031519;28;20037;-62
2021/06/10 00:18:10;;;;;;;40.33;30.83;;;;;;;;;;5033930;28;20428;-62
2021/06/10 00:20:56;;;;;;;42.33;32.20;;;;;;;;;;5014872;28;20495;-62
2021/06/10 00:23:41;;;;;;;38.83;30.10;;;;;;;;;;5015023;28;20046;-62
2021/06/10 00:26:26;;;;;;;42.38;32.20;;;;;;;;;;5014888;28;20492;-62
2021/06/10 00:29:12;;;;;;;43.47;30.92;;;;;;;;;;5014873;28;20108;-62
2021/06/10 00:31:57;;;;;;;45.80;33.08;;;;;;;;;;5015151;28;20108;-62
2021/06/10 00:34:43;;;;;;;48.60;34.10;;;;;;;;;;5018722;28;20044;-62
2021/06/10 00:37:29;;;;;;;43.47;34.15;;;;;;;;;;5034509;28;20436;-62
2021/06/10 00:40:14;;;;;;;35.22;28.92;;;;;;;;;;5032583;28;20049;-64
2021/06/10 00:42:59;;;;;;;37.13;31.30;;;;;;;;;;5035163;28;20046;-64
2021/06/10 00:45:45;;;;;;;27.58;22.10;;;;;;;;;;5032536;28;20054;-64
2021/06/10 00:48:30;;;;;;;29.38;23.13;;;;;;;;;;5034874;28;20117;-64
2021/06/10 00:51:16;;;;;;;29.48;23.17;;;;;;;;;;5034147;28;20090;-64
2021/06/10 00:54:01;;;;;;;29.75;22.63;;;;;;;;;;5018856;28;20126;-62
2021/06/10 00:56:46;;;;;;;31.85;24.65;;;;;;;;;;5034108;28;20052;-62
2021/06/10 00:59:31;;;;;;;38.47;28.35;;;;;;;;;;5033764;28;20060;-62
2021/06/10 01:02:17;;;;;;;36.65;27.52;;;;;;;;;;5034029;28;20050;-62
2021/06/10 01:05:02;;;;;;;27.75;23.10;;;;;;;;;;5032182;28;20064;-62
2021/06/10 01:07:48;;;;;;;33.67;26.23;;;;;;;;;;5034186;28;20512;-62
2021/06/10 01:10:36;;;;;;;35.10;25.83;;;;;;;;;;5013868;28;20053;-62
2021/06/10 01:13:21;;;;;;;32.00;25.25;;;;;;;;;;5013782;28;20104;-62
2021/06/10 01:16:08;;;;;;;35.80;26.75;;;;;;;;;;5032658;28;20050;-62
2021/06/10 01:18:53;;;;;;;37.13;29.45;;;;;;;;;;5033841;28;20059;-62
2021/06/10 01:21:38;;;;;;;41.75;30.30;;;;;;;;;;5018591;28;20131;-62
2021/06/10 01:24:28;;;;;;;38.75;28.40;;;;;;;;;;5017216;28;20053;-61
2021/06/10 01:27:26;;;;;;;38.45;30.25;;;;;;;;;;5014033;28;20236;-62
2021/06/10 01:30:19;;;;;;;41.97;29.05;;;;;;;;;;5024503;28;20061;-62
2021/06/10 01:33:08;;;;;;;31.25;24.65;;;;;;;;;;5033575;28;20056;-62
2021/06/10 01:35:56;;;;;;;41.33;30.40;;;;;;;;;;5031717;28;20053;-62
2021/06/10 01:38:42;;;;;;;37.13;28.38;;;;;;;;;;5032333;28;20115;-62
2021/06/10 01:41:27;;;;;;;43.80;29.88;;;;;;;;;;5032058;28;20530;-62
2021/06/10 01:44:13;;;;;;;47.33;33.63;;;;;;;;;;5032279;28;20049;-62
2021/06/10 01:46:58;;;;;;;43.85;33.92;;;;;;;;;;5033491;28;20130;-62
2021/06/10 01:49:43;;;;;;;46.72;31.40;;;;;;;;;;5033066;28;20045;-62
2021/06/10 01:52:29;;;;;;;29.40;24.75;;;;;;;;;;5033072;28;20042;-62
2021/06/10 01:55:15;;;;;;;59.13;41.08;;;;;;;;;;5016610;28;20048;-62
2021/06/10 01:58:00;;;;;;;45.78;33.70;;;;;;;;;;5018380;28;20089;-61
2021/06/10 02:00:46;;;;;;;35.50;28.08;;;;;;;;;;5017695;28;20041;-62
2021/06/10 02:03:33;;;;;;;44.78;34.08;;;;;;;;;;5032921;28;20534;-62
2021/06/10 02:06:18;;;;;;;53.28;36.22;;;;;;;;;;5031048;28;20487;-63
2021/06/10 02:09:06;;;;;;;41.28;33.25;;;;;;;;;;5032176;28;20049;-62
2021/06/10 02:11:51;;;;;;;39.10;30.70;;;;;;;;;;5031595;28;20042;-62
2021/06/10 02:14:37;;;;;;;57.63;38.55;;;;;;;;;;5032909;28;20052;-63
2021/06/10 02:17:22;;;;;;;44.40;34.15;;;;;;;;;;5032678;28;20175;-62
2021/06/10 02:20:09;;;;;;;48.75;35.22;;;;;;;;;;5031648;28;20050;-62
2021/06/10 02:22:55;;;;;;;60.17;35.85;;;;;;;;;;5031949;28;20045;-62
2021/06/10 02:25:40;;;;;;;64.18;41.80;;;;;;;;;;5030075;28;20152;-62
2021/06/10 02:28:25;;;;;;;101.30;53.70;;;;;;;;;;5032344;28;20057;-62
2021/06/10 02:31:11;;;;;;;106.68;58.92;;;;;;;;;;5031340;28;20060;-62
2021/06/10 02:33:57;;;;;;;112.38;60.38;;;;;;;;;;5032650;28;20060;-62
2021/06/10 02:36:43;;;;;;;63.35;41.92;;;;;;;;;;5031515;28;20067;-62
2021/06/10 02:39:29;;;;;;;46.13;33.72;;;;;;;;;;5031122;28;20080;-62
2021/06/10 02:42:14;;;;;;;47.60;35.30;;;;;;;;;;5031789;28;20042;-62
2021/06/10 02:45:00;;;;;;;49.30;35.70;;;;;;;;;;5030386;28;20041;-62
2021/06/10 02:47:45;;;;;;;52.38;36.67;;;;;;;;;;5031208;28;20447;-62
2021/06/10 02:50:31;;;;;;;67.03;41.78;;;;;;;;;;5029414;28;20045;-62
2021/06/10 02:53:16;;;;;;;40.38;29.77;;;;;;;;;;5030954;28;20057;-62
2021/06/10 02:56:02;;;;;;;30.95;24.48;;;;;;;;;;5031286;28;20447;-62
2021/06/10 02:58:47;;;;;;;32.28;25.77;;;;;;;;;;5032067;28;20057;-62
2021/06/10 03:01:36;;;;;;;46.63;33.15;;;;;;;;;;5030592;28;20049;-62
2021/06/10 03:04:42;;;;;;;38.05;28.83;;;;;;;;;;5017649;28;20053;-62
2021/06/10 03:07:27;;;;;;;75.70;46.10;;;;;;;;;;5033613;28;20049;-62
2021/06/10 03:10:13;;;;;;;88.65;50.83;;;;;;;;;;5034954;28;20415;-62
2021/06/10 03:12:58;;;;;;;59.53;39.85;;;;;;;;;;5031925;28;20053;-64
2021/06/10 03:15:44;;;;;;;37.45;29.42;;;;;;;;;;5030912;28;20045;-64
2021/06/10 03:18:30;;;;;;;40.05;29.05;;;;;;;;;;5032089;28;20046;-64
2021/06/10 03:21:17;;;;;;;61.45;41.63;;;;;;;;;;5030031;28;20046;-64
2021/06/10 03:24:02;;;;;;;76.82;47.50;;;;;;;;;;5031105;28;20184;-64
2021/06/10 03:26:48;;;;;;;52.20;35.83;;;;;;;;;;5030757;28;20042;-64
2021/06/10 03:29:35;;;;;;;43.75;30.80;;;;;;;;;;5030766;28;20097;-64
2021/06/10 03:32:21;;;;;;;33.08;25.70;;;;;;;;;;5030950;28;20056;-64
2021/06/10 03:35:07;;;;;;;41.97;29.73;;;;;;;;;;5032787;28;20061;-63
2021/06/10 03:37:53;;;;;;;32.80;26.00;;;;;;;;;;5022468;28;20049;-64
2021/06/10 03:40:38;;;;;;;41.55;32.65;;;;;;;;;;5038215;28;20531;-64
2021/06/10 03:43:24;;;;;;;46.88;34.25;;;;;;;;;;5023645;28;20044;-64
2021/06/10 03:46:10;;;;;;;81.82;47.20;;;;;;;;;;5021679;28;20038;-64
2021/06/10 03:48:55;;;;;;;92.82;51.60;;;;;;;;;;5034525;28;20519;-64
2021/06/10 03:51:40;;;;;;;92.72;50.63;;;;;;;;;;5034953;28;20514;-64
2021/06/10 03:54:25;;;;;;;81.20;50.85;;;;;;;;;;5034855;28;20049;-64
2021/06/10 03:57:11;;;;;;;83.03;52.35;;;;;;;;;;5035246;28;20049;-64
2021/06/10 03:59:56;;;;;;;84.78;51.08;;;;;;;;;;5033305;28;20049;-64
2021/06/10 04:02:42;;;;;;;54.45;38.25;;;;;;;;;;5033343;28;20419;-64
2021/06/10 04:05:31;;;;;;;65.53;41.00;;;;;;;;;;5035232;28;20062;-64
2021/06/10 04:08:20;;;;;;;55.08;36.72;;;;;;;;;;5035830;28;20042;-64
2021/06/10 04:11:13;;;;;;;47.25;32.92;;;;;;;;;;5033898;28;20053;-64
2021/06/10 04:13:59;;;;;;;54.25;37.38;;;;;;;;;;5035162;28;20467;-64
2021/06/10 04:16:45;;;;;;;48.95;36.33;;;;;;;;;;5034593;28;20053;-64
2021/06/10 04:19:32;;;;;;;47.88;35.25;;;;;;;;;;5034810;28;20049;-64
2021/06/10 04:22:17;;;;;;;47.28;35.35;;;;;;;;;;5015322;28;20057;-64
2021/06/10 04:25:05;;;;;;;36.72;30.27;;;;;;;;;;5015400;28;20385;-64
2021/06/10 04:27:53;;;;;;;42.67;33.05;;;;;;;;;;5015355;28;20066;-62
2021/06/10 04:30:38;;;;;;;43.03;32.22;;;;;;;;;;5018303;28;20456;-62
2021/06/10 04:33:24;;;;;;;52.63;37.78;;;;;;;;;;5035069;28;20054;-63
2021/06/10 04:36:10;;;;;;;60.20;41.80;;;;;;;;;;5035093;28;20389;-62
2021/06/10 04:38:56;;;;;;;65.75;44.65;;;;;;;;;;5036332;28;20076;-62
2021/06/10 04:41:42;;;;;;;68.38;46.40;;;;;;;;;;5033295;28;20091;-62
2021/06/10 04:44:27;;;;;;;61.40;42.30;;;;;;;;;;5034534;28;20049;-62
2021/06/10 04:47:13;;;;;;;53.38;39.97;;;;;;;;;;5033810;28;20426;-62
2021/06/10 04:49:58;;;;;;;53.13;40.75;;;;;;;;;;5033230;28;20492;-62
2021/06/10 04:52:44;;;;;;;54.72;42.28;;;;;;;;;;5034530;28;20068;-61
2021/06/10 04:55:31;;;;;;;55.47;43.08;;;;;;;;;;5034501;28;20180;-62
2021/06/10 04:58:22;;;;;;;55.65;43.13;;;;;;;;;;5034311;28;20053;-62
2021/06/10 05:01:07;;;;;;;53.35;42.20;;;;;;;;;;5033475;28;20151;-62
2021/06/10 05:03:52;;;;;;;48.90;38.72;;;;;;;;;;5085136;22;20506;-64
2021/06/10 05:06:38;;;;;;;51.13;40.65;;;;;;;;;;5051082;28;20044;-64
2021/06/10 05:09:23;;;;;;;63.72;47.47;;;;;;;;;;5052870;28;20045;-64
2021/06/10 05:12:09;;;;;;;71.57;49.95;;;;;;;;;;5053998;28;20049;-64
2021/06/10 05:14:54;;;;;;;65.43;49.30;;;;;;;;;;5051750;28;20136;-64
2021/06/10 05:17:40;;;;;;;70.15;51.53;;;;;;;;;;5053684;28;20486;-64
2021/06/10 05:20:25;;;;;;;71.57;53.85;;;;;;;;;;5052587;28;20049;-63
2021/06/10 05:23:10;;;;;;;60.88;49.90;;;;;;;;;;5053378;28;20045;-63
2021/06/10 05:25:56;;;;;;;67.22;49.90;;;;;;;;;;5053600;28;20049;-63
2021/06/10 05:28:42;;;;;;;60.63;49.05;;;;;;;;;;5053652;28;20120;-63
2021/06/10 05:31:27;;;;;;;48.25;42.65;;;;;;;;;;5051792;28;20048;-63
2021/06/10 05:34:17;;;;;;;44.03;37.38;;;;;;;;;;5052106;28;20103;-64
2021/06/10 05:37:02;;;;;;;46.97;38.80;;;;;;;;;;5052602;28;20488;-65
2021/06/10 05:39:48;;;;;;;40.75;33.78;;;;;;;;;;5035514;28;20576;-64
2021/06/10 05:42:33;;;;;;;40.25;34.85;;;;;;;;;;5051837;28;20052;-63
2021/06/10 05:45:19;;;;;;;37.70;31.83;;;;;;;;;;5053337;28;20103;-63
2021/06/10 05:48:05;;;;;;;35.85;31.95;;;;;;;;;;5053186;28;20049;-63
2021/06/10 05:50:50;;;;;;;38.22;31.13;;;;;;;;;;5051876;28;20118;-63
2021/06/10 05:53:36;;;;;;;34.78;30.60;;;;;;;;;;5033126;28;20455;-63
2021/06/10 05:56:22;;;;;;;32.35;29.00;;;;;;;;;;5033086;28;20131;-64
2021/06/10 05:59:07;;;;;;;32.67;28.38;;;;;;;;;;5032437;28;20122;-63
2021/06/10 06:01:52;;;;;;;32.40;27.92;;;;;;;;;;5048387;28;20045;-64
2021/06/10 06:04:48;;;;;;;32.13;28.08;;;;;;;;;;5052594;28;20049;-63
2021/06/10 06:07:33;;;;;;;30.08;26.92;;;;;;;;;;5052096;28;20049;-63
2021/06/10 06:10:20;;;;;;;31.63;27.23;;;;;;;;;;5050920;28;20057;-64
2021/06/10 06:13:09;;;;;;;29.27;26.23;;;;;;;;;;5032668;28;20057;-64
2021/06/10 06:15:57;;;;;;;29.42;25.95;;;;;;;;;;5032885;28;20056;-63
2021/06/10 06:18:42;;;;;;;28.48;24.63;;;;;;;;;;5018091;28;20050;-65
2021/06/10 06:21:28;;;;;;;24.30;21.70;;;;;;;;;;5038002;28;20063;-64
2021/06/10 06:24:13;;;;;;;25.65;22.90;;;;;;;;;;5017810;28;20052;-64
2021/06/10 06:27:09;;;;;;;25.92;23.27;;;;;;;;;;5035548;28;20055;-64
2021/06/10 06:29:54;;;;;;;22.75;20.48;;;;;;;;;;5052082;28;20513;-65
2021/06/10 06:32:39;;;;;;;23.30;20.77;;;;;;;;;;5051351;28;20049;-64
2021/06/10 06:35:25;;;;;;;23.45;20.98;;;;;;;;;;5052497;28;20142;-64
2021/06/10 06:38:11;;;;;;;23.08;20.35;;;;;;;;;;5051655;28;20095;-64
2021/06/10 06:40:57;;;;;;;23.20;20.80;;;;;;;;;;5049336;28;20052;-63
2021/06/10 06:43:43;;;;;;;22.63;20.33;;;;;;;;;;5051738;28;20119;-64
2021/06/10 06:46:30;;;;;;;22.20;19.73;;;;;;;;;;5049142;28;20124;-63
2021/06/10 06:49:15;;;;;;;21.88;19.52;;;;;;;;;;5051775;28;20548;-63
2021/06/10 06:52:01;;;;;;;19.48;17.50;;;;;;;;;;5052154;28;20515;-64
2021/06/10 06:54:47;;;;;;;20.40;18.40;;;;;;;;;;5049001;28;20041;-64
2021/06/10 06:57:32;;;;;;;20.92;17.77;;;;;;;;;;5052076;28;20183;-64
2021/06/10 07:00:18;;;;;;;20.05;18.02;;;;;;;;;;5051697;28;20395;-64
2021/06/10 07:03:03;;;;;;;20.73;17.23;;;;;;;;;;5051829;28;20098;-64
2021/06/10 07:05:48;;;;;;;20.05;17.92;;;;;;;;;;5050285;28;20052;-64
2021/06/10 07:08:45;;;;;;;19.02;17.10;;;;;;;;;;5051394;28;20045;-64
2021/06/10 07:11:30;;;;;;;18.95;16.55;;;;;;;;;;5055251;28;20048;-65
2021/06/10 07:14:16;;;;;;;19.90;17.27;;;;;;;;;;5056109;28;20051;-64
2021/06/10 07:17:02;;;;;;;18.92;16.35;;;;;;;;;;5055241;28;20136;-64
2021/06/10 07:19:51;;;;;;;16.48;14.93;;;;;;;;;;5055939;28;20075;-64
2021/06/10 07:22:46;;;;;;;16.00;14.40;;;;;;;;;;5057394;28;20136;-64
2021/06/10 07:25:31;;;;;;;17.30;15.40;;;;;;;;;;5055343;28;20053;-64
2021/06/10 07:28:16;;;;;;;16.67;15.13;;;;;;;;;;5038457;28;20053;-64
2021/06/10 07:31:07;;;;;;;16.30;14.75;;;;;;;;;;5038056;28;20491;-64
2021/06/10 07:33:53;;;;;;;16.48;14.88;;;;;;;;;;5038405;28;20053;-64
2021/06/10 07:36:41;;;;;;;16.50;14.25;;;;;;;;;;5042649;28;20049;-64
2021/06/10 07:39:27;;;;;;;15.27;13.70;;;;;;;;;;5058118;28;20056;-65
2021/06/10 07:42:13;;;;;;;14.52;13.15;;;;;;;;;;5058216;28;20049;-64
2021/06/10 07:44:58;;;;;;;13.48;12.27;;;;;;;;;;5058129;28;20045;-64
2021/06/10 07:47:44;;;;;;;14.43;13.10;;;;;;;;;;5057272;28;20045;-65
2021/06/10 07:50:30;;;;;;;14.50;13.00;;;;;;;;;;5056891;28;20045;-65
2021/06/10 07:53:15;;;;;;;14.88;13.27;;;;;;;;;;5058002;28;20494;-64
2021/06/10 07:56:03;;;;;;;12.00;10.98;;;;;;;;;;5057219;28;20045;-64
2021/06/10 07:58:49;;;;;;;13.05;11.60;;;;;;;;;;5058382;28;20053;-64
2021/06/10 08:01:34;;;;;;;12.90;11.57;;;;;;;;;;5055278;28;20044;-65
2021/06/10 08:04:19;;;;;;;12.20;11.00;;;;;;;;;;5056135;28;20048;-64
2021/06/10 08:07:05;;;;;;;11.95;10.75;;;;;;;;;;5058115;28;20045;-65
2021/06/10 08:09:50;;;;;;;13.27;10.98;;;;;;;;;;5057771;28;20068;-64
2021/06/10 08:12:35;;;;;;;12.60;11.40;;;;;;;;;;5056555;28;20099;-65
2021/06/10 08:15:21;;;;;;;10.75;9.65;;;;;;;;;;5058147;28;20095;-65
2021/06/10 08:18:06;;;;;;;9.75;8.70;;;;;;;;;;5057968;28;20052;-64
2021/06/10 08:20:52;;;;;;;10.30;9.35;;;;;;;;;;5057113;28;20505;-64
2021/06/10 08:23:38;;;;;;;10.35;9.45;;;;;;;;;;5053561;28;20072;-65
2021/06/10 08:26:23;;;;;;;8.80;8.10;;;;;;;;;;5051225;28;20126;-64
2021/06/10 08:29:12;;;;;;;10.60;8.50;;;;;;;;;;5053858;28;20041;-64
2021/06/10 08:31:59;;;;;;;10.30;8.80;;;;;;;;;;5050453;28;20118;-64
2021/06/10 08:34:44;;;;;;;10.60;9.00;;;;;;;;;;5052458;28;20056;-64
2021/06/10 08:37:31;;;;;;;8.63;7.82;;;;;;;;;;5053164;28;20418;-65
2021/06/10 08:40:16;;;;;;;11.20;8.35;;;;;;;;;;5051627;28;20056;-64
2021/06/10 08:43:02;;;;;;;7.97;7.15;;;;;;;;;;5054359;28;20056;-64
2021/06/10 08:45:48;;;;;;;8.88;8.00;;;;;;;;;;5054369;28;20120;-65
2021/06/10 08:48:34;;;;;;;12.20;8.40;;;;;;;;;;5039621;28;20080;-65
2021/06/10 08:51:19;;;;;;;8.55;7.65;;;;;;;;;;5053003;28;20051;-65
2021/06/10 08:54:05;;;;;;;8.75;7.35;;;;;;;;;;5054340;28;20047;-66
2021/06/10 08:56:56;;;;;;;8.07;7.28;;;;;;;;;;5054324;28;20052;-65
2021/06/10 08:59:42;;;;;;;8.00;6.97;;;;;;;;;;5038996;28;20120;-64
2021/06/10 09:02:27;;;;;;;8.40;6.85;;;;;;;;;;5052397;28;20124;-65
2021/06/10 09:05:12;;;;;;;7.53;6.82;;;;;;;;;;5052284;28;20045;-64
2021/06/10 09:08:02;;;;;;;7.13;4.93;;;;;;;;;;5054041;28;20079;-64
2021/06/10 09:10:47;;;;;;;6.90;4.53;;;;;;;;;;5052595;28;20080;-64
2021/06/10 09:14:01;;;;;;;6.30;5.35;;;;;;;;;;5038050;28;20049;-64
2021/06/10 09:16:50;;;;;;;8.73;6.00;;;;;;;;;;5048793;28;20122;-65
2021/06/10 09:19:38;;;;;;;7.25;6.65;;;;;;;;;;5051634;28;20056;-65
2021/06/10 09:22:27;;;;;;;10.98;6.97;;;;;;;;;;5053494;28;20517;-65
2021/06/10 09:25:16;;;;;;;8.55;7.63;;;;;;;;;;5053904;28;20433;-64
2021/06/10 09:28:05;;;;;;;5.80;4.53;;;;;;;;;;5051783;28;20045;-65
2021/06/10 09:30:52;;;;;;;5.22;4.65;;;;;;;;;;5035915;28;20056;-65
2021/06/10 09:33:41;;;;;;;7.07;5.57;;;;;;;;;;5033497;28;20049;-65
2021/06/10 09:36:26;;;;;;;6.45;5.85;;;;;;;;;;5033528;28;20052;-65
2021/06/10 09:39:13;;;;;;;7.95;5.22;;;;;;;;;;5033415;28;20081;-64
2021/06/10 09:42:00;;;;;;;6.03;5.43;;;;;;;;;;5046443;28;20060;-64
2021/06/10 09:44:52;;;;;;;5.65;4.70;;;;;;;;;;5053344;28;20049;-64
2021/06/10 09:47:40;;;;;;;5.32;4.38;;;;;;;;;;5053075;28;20036;-66
2021/06/10 09:50:29;;;;;;;5.22;4.35;;;;;;;;;;5052955;28;20167;-64
2021/06/10 09:53:16;;;;;;;5.53;4.15;;;;;;;;;;5051535;28;20087;-64
2021/06/10 09:56:08;;;;;;;5.43;3.97;;;;;;;;;;5050694;28;20053;-64
2021/06/10 09:59:03;;;;;;;5.80;3.80;;;;;;;;;;5052991;28;20045;-64
2021/06/10 10:01:50;;;;;;;9.82;4.85;;;;;;;;;;5050813;28;20049;-65
2021/06/10 10:04:56;;;;;;;6.50;4.60;;;;;;;;;;5050226;28;20143;-64
2021/06/10 10:07:53;;;;;;;3.47;3.17;;;;;;;;;;5052590;28;20128;-63
2021/06/10 10:10:38;;;;;;;5.70;4.70;;;;;;;;;;5052312;28;20078;-64
2021/06/10 10:13:27;;;;;;;7.75;5.50;;;;;;;;;;5051576;28;20053;-64
2021/06/10 10:16:12;;;;;;;4.55;3.90;;;;;;;;;;5052605;28;20110;-64
2021/06/10 10:18:58;;;;;;;3.08;2.38;;;;;;;;;;5049481;28;20491;-64
2021/06/10 10:21:43;;;;;;;8.23;5.00;;;;;;;;;;5052382;28;20130;-65
2021/06/10 10:24:29;;;;;;;2.83;2.63;;;;;;;;;;5052384;28;20080;-64
2021/06/10 10:27:15;;;;;;;5.18;3.42;;;;;;;;;;5052362;28;20048;-64
2021/06/10 10:30:01;;;;;;;5.45;4.20;;;;;;;;;;5050248;28;20045;-63
2021/06/10 10:32:46;;;;;;;4.70;4.30;;;;;;;;;;5050223;28;20434;-64
2021/06/10 10:35:33;;;;;;;5.00;3.60;;;;;;;;;;5050678;28;20118;-66
2021/06/10 10:38:21;;;;;;;3.75;3.40;;;;;;;;;;5049478;28;20041;-65
2021/06/10 10:41:14;;;;;;;3.30;3.00;;;;;;;;;;5049882;28;20521;-64
2021/06/10 10:44:08;;;;;;;5.15;3.60;;;;;;;;;;5049185;28;20045;-65
2021/06/10 10:47:01;;;;;;;6.70;4.00;;;;;;;;;;5046371;28;20053;-64
2021/06/10 10:49:46;;;;;;;5.18;4.68;;;;;;;;;;5051617;28;20104;-64
2021/06/10 10:52:37;;;;;;;5.13;3.75;;;;;;;;;;5049779;28;20430;-64
2021/06/10 10:55:28;;;;;;;5.07;3.63;;;;;;;;;;5047858;28;20510;-64
2021/06/10 10:58:18;;;;;;;3.97;3.25;;;;;;;;;;5050206;28;20049;-64
2021/06/10 11:01:04;;;;;;;5.25;4.43;;;;;;;;;;5048505;28;20045;-64
2021/06/10 11:03:51;;;;;;;4.47;4.07;;;;;;;;;;5050297;28;20045;-64
2021/06/10 11:06:37;;;;;;;3.75;3.40;;;;;;;;;;5036738;28;20040;-64
2021/06/10 11:09:24;;;;;;;3.95;3.65;;;;;;;;;;5049284;28;20135;-64
2021/06/10 11:12:14;;;;;;;3.80;3.38;;;;;;;;;;5064311;22;20077;-63
2021/06/10 11:15:01;;;;;;;4.38;3.97;;;;;;;;;;5048755;28;20045;-62
2021/06/10 11:17:50;;;;;;;3.97;3.58;;;;;;;;;;5049816;28;20095;-63
2021/06/10 11:20:38;;;;;;;4.20;3.80;;;;;;;;;;5050627;28;20498;-63
2021/06/10 11:23:26;;;;;;;3.95;2.45;;;;;;;;;;5047490;28;20037;-62
2021/06/10 11:26:22;;;;;;;4.63;3.00;;;;;;;;;;5050627;28;20048;-62
2021/06/10 11:29:08;;;;;;;5.07;3.22;;;;;;;;;;5049867;28;20076;-64
2021/06/10 11:32:12;;;;;;;4.90;3.42;;;;;;;;;;5050357;28;20122;-63
2021/06/10 11:34:57;;;;;;;4.90;2.92;;;;;;;;;;5051271;28;20033;-64
2021/06/10 11:37:43;;;;;;;3.60;3.28;;;;;;;;;;5051748;28;20045;-64
2021/06/10 11:40:28;;;;;;;5.40;2.35;;;;;;;;;;5050422;28;20120;-64
2021/06/10 11:43:13;;;;;;;3.60;2.88;;;;;;;;;;5050571;28;20041;-63
2021/06/10 11:46:02;;;;;;;5.30;3.25;;;;;;;;;;5051291;28;20053;-64
2021/06/10 11:48:50;;;;;;;4.05;2.97;;;;;;;;;;5048696;28;20064;-62
2021/06/10 11:51:37;;;;;;;3.22;2.55;;;;;;;;;;5051049;28;20163;-63
2021/06/10 11:54:23;;;;;;;3.00;2.28;;;;;;;;;;5050448;28;20541;-63
2021/06/10 11:57:08;;;;;;;4.32;2.45;;;;;;;;;;5051156;28;20091;-63
2021/06/10 11:59:54;;;;;;;4.55;2.40;;;;;;;;;;5054989;28;20044;-63
2021/06/10 12:02:39;;;;;;;2.22;2.03;;;;;;;;;;5054930;28;20501;-63
2021/06/10 12:05:25;;;;;;;4.07;2.60;;;;;;;;;;5054402;28;20049;-62
2021/06/10 12:08:11;;;;;;;5.85;2.00;;;;;;;;;;5054923;28;20056;-63
2021/06/10 12:10:58;;;;;;;2.67;2.28;;;;;;;;;;5039956;28;20407;-63
2021/06/10 12:13:49;;;;;;;3.15;2.35;;;;;;;;;;5051332;28;21072;-63
2021/06/10 12:16:35;;;;;;;2.50;2.13;;;;;;;;;;5055122;28;20091;-63
2021/06/10 12:19:27;;;;;;;2.90;1.73;;;;;;;;;;5054469;28;20499;-64
2021/06/10 12:22:13;;;;;;;4.15;2.03;;;;;;;;;;5039946;28;20045;-64
2021/06/10 12:24:59;;;;;;;4.95;2.25;;;;;;;;;;5054411;28;20068;-64
2021/06/10 12:27:44;;;;;;;3.13;1.63;;;;;;;;;;5059917;28;20557;-63
2021/06/10 12:30:39;;;;;;;2.63;2.03;;;;;;;;;;5064196;28;20033;-63
2021/06/10 12:33:25;;;;;;;4.05;2.22;;;;;;;;;;5054835;28;20090;-64
2021/06/10 12:36:17;;;;;;;2.78;1.95;;;;;;;;;;5053891;28;20053;-64
2021/06/10 12:39:11;;;;;;;6.47;1.70;;;;;;;;;;5055448;28;20049;-64
2021/06/10 12:41:56;;;;;;;1.98;1.65;;;;;;;;;;5055852;28;20049;-64
2021/06/10 12:44:42;;;;;;;3.20;1.52;;;;;;;;;;5054732;28;20073;-63
2021/06/10 12:47:31;;;;;;;3.53;1.45;;;;;;;;;;5056090;28;20048;-64
2021/06/10 12:50:21;;;;;;;2.03;1.70;;;;;;;;;;5056415;28;20052;-64
2021/06/10 12:53:16;;;;;;;3.72;1.33;;;;;;;;;;5054465;28;20049;-64
2021/06/10 12:56:10;;;;;;;3.25;1.63;;;;;;;;;;5053150;28;20049;-64
2021/06/10 12:58:55;;;;;;;2.97;1.58;;;;;;;;;;5054134;28;20044;-64
2021/06/10 13:02:00;;;;;;;2.28;1.75;;;;;;;;;;5053751;28;20053;-63
2021/06/10 13:04:46;;;;;;;2.20;1.67;;;;;;;;;;5040863;28;20490;-64
2021/06/10 13:07:44;;;;;;;3.28;1.70;;;;;;;;;;5055409;28;20081;-64
2021/06/10 13:10:35;;;;;;;2.47;1.27;;;;;;;;;;5055552;28;20053;-64
2021/06/10 13:13:41;;;;;;;5.00;2.08;;;;;;;;;;5040884;28;20064;-63
2021/06/10 13:16:26;;;;;;;4.20;2.20;;;;;;;;;;5054151;28;20131;-64
2021/06/10 13:19:24;;;;;;;3.28;1.88;;;;;;;;;;5056115;28;20446;-64
2021/06/10 13:22:15;;;;;;;2.70;1.65;;;;;;;;;;5055499;28;20055;-64
2021/06/10 13:25:05;;;;;;;3.15;2.13;;;;;;;;;;5055563;28;20049;-64
2021/06/10 13:28:07;;;;;;;2.28;1.80;;;;;;;;;;5054884;28;20186;-64
2021/06/10 13:30:54;;;;;;;2.97;2.22;;;;;;;;;;5054506;28;20099;-64
2021/06/10 13:33:49;;;;;;;4.15;3.10;;;;;;;;;;5029161;28;20052;-64
2021/06/10 13:36:44;;;;;;;3.10;2.80;;;;;;;;;;5054167;28;20049;-64
2021/06/10 13:39:30;;;;;;;6.80;4.18;;;;;;;;;;5055332;28;20060;-64
2021/06/10 13:42:15;;;;;;;3.45;2.75;;;;;;;;;;5039719;28;20624;-63
2021/06/10 13:45:00;;;;;;;4.80;3.47;;;;;;;;;;5053419;28;20052;-63
2021/06/10 13:47:45;;;;;;;4.88;2.88;;;;;;;;;;5052570;28;20204;-63
2021/06/10 13:50:32;;;;;;;3.15;2.35;;;;;;;;;;5052936;28;20048;-63
2021/06/10 13:53:19;;;;;;;4.93;2.85;;;;;;;;;;5052919;28;20052;-64
2021/06/10 13:56:05;;;;;;;4.93;3.88;;;;;;;;;;5053044;28;20052;-63
2021/06/10 13:58:55;;;;;;;7.40;3.63;;;;;;;;;;5050523;28;20494;-64
2021/06/10 14:02:00;;;;;;;4.32;3.50;;;;;;;;;;5048696;28;20048;-63
2021/06/10 14:04:54;;;;;;;7.40;3.10;;;;;;;;;;5051603;28;20045;-63
2021/06/10 14:08:02;;;;;;;7.60;3.35;;;;;;;;;;5025591;28;20518;-63
2021/06/10 14:11:05;;;;;;;5.25;3.80;;;;;;;;;;5052588;28;20049;-63
2021/06/10 14:13:54;;;;;;;3.30;3.00;;;;;;;;;;5052538;28;20057;-63
2021/06/10 14:16:41;;;;;;;3.95;2.75;;;;;;;;;;5052710;28;20060;-63
2021/06/10 14:19:28;;;;;;;4.32;3.33;;;;;;;;;;5030796;28;20056;-63
2021/06/10 14:22:13;;;;;;;4.35;2.90;;;;;;;;;;5032067;28;20448;-63
2021/06/10 14:25:02;;;;;;;3.72;2.90;;;;;;;;;;5032824;28;20041;-63
2021/06/10 14:27:55;;;;;;;5.03;2.85;;;;;;;;;;5033036;28;20045;-63
2021/06/10 14:30:52;;;;;;;3.85;2.63;;;;;;;;;;5052288;28;20070;-63
2021/06/10 14:33:40;;;;;;;5.18;3.35;;;;;;;;;;5052585;28;20052;-63
2021/06/10 14:36:28;;;;;;;4.82;3.25;;;;;;;;;;5052451;28;20040;-63
2021/06/10 14:39:27;;;;;;;6.93;3.60;;;;;;;;;;5051430;28;20037;-64
2021/06/10 14:42:14;;;;;;;4.30;2.63;;;;;;;;;;5052134;28;20044;-63
2021/06/10 14:44:59;;;;;;;4.00;3.00;;;;;;;;;;5052527;28;20055;-63
2021/06/10 14:47:48;;;;;;;5.53;2.72;;;;;;;;;;5052154;28;20045;-63
2021/06/10 14:50:40;;;;;;;6.07;3.25;;;;;;;;;;5051128;28;20439;-63
2021/06/10 14:53:25;;;;;;;5.75;3.22;;;;;;;;;;5052078;28;20056;-63
2021/06/10 14:56:17;;;;;;;4.60;3.30;;;;;;;;;;5051979;28;20537;-63
2021/06/10 14:59:02;;;;;;;3.17;2.55;;;;;;;;;;5051177;28;20057;-63
2021/06/10 15:01:50;;;;;;;6.25;3.25;;;;;;;;;;5051181;28;20060;-63
2021/06/10 15:04:38;;;;;;;3.10;2.80;;;;;;;;;;5051985;28;20410;-63
2021/06/10 15:07:24;;;;;;;3.20;2.42;;;;;;;;;;5052168;28;20053;-63
2021/06/10 15:10:09;;;;;;;4.40;2.00;;;;;;;;;;5050562;28;20450;-63
2021/06/10 15:12:55;;;;;;;5.05;2.63;;;;;;;;;;5051710;28;20049;-63
2021/06/10 15:15:40;;;;;;;5.30;4.80;;;;;;;;;;5051485;28;20059;-63
2021/06/10 15:18:26;;;;;;;6.63;4.32;;;;;;;;;;5050385;28;20049;-63
2021/06/10 15:21:12;;;;;;;5.95;3.78;;;;;;;;;;5050135;28;20060;-63
2021/06/10 15:23:58;;;;;;;5.90;2.70;;;;;;;;;;5049941;28;20053;-63
2021/06/10 15:26:57;;;;;;;5.35;2.97;;;;;;;;;;5049023;28;20067;-64
2021/06/10 15:29:44;;;;;;;3.35;2.70;;;;;;;;;;5051460;28;20102;-64
2021/06/10 15:32:33;;;;;;;4.07;2.78;;;;;;;;;;5034150;28;20053;-63
2021/06/10 15:35:21;;;;;;;3.03;2.35;;;;;;;;;;5035918;28;20057;-63
2021/06/10 15:38:11;;;;;;;5.07;2.45;;;;;;;;;;5035914;28;20059;-63
2021/06/10 15:41:02;;;;;;;3.20;2.90;;;;;;;;;;5039309;28;20041;-64
2021/06/10 15:43:55;;;;;;;2.70;2.50;;;;;;;;;;5055649;28;20505;-63
2021/06/10 15:46:43;;;;;;;5.28;3.70;;;;;;;;;;5055684;28;20524;-63
2021/06/10 15:49:30;;;;;;;2.97;2.53;;;;;;;;;;5040737;28;20049;-63
2021/06/10 15:52:24;;;;;;;4.35;2.78;;;;;;;;;;5054770;28;20080;-63
2021/06/10 15:55:30;;;;;;;5.40;2.72;;;;;;;;;;5055035;28;20048;-63
2021/06/10 15:58:35;;;;;;;3.47;1.80;;;;;;;;;;5051990;28;20053;-63
2021/06/10 16:01:25;;;;;;;2.33;2.05;;;;;;;;;;5049902;28;20041;-63
2021/06/10 16:04:14;;;;;;;4.03;2.10;;;;;;;;;;5050822;28;20511;-63
2021/06/10 16:07:19;;;;;;;2.20;1.80;;;;;;;;;;5018587;28;20046;-63
2021/06/10 16:10:25;;;;;;;4.43;1.95;;;;;;;;;;5028546;28;20045;-63
2021/06/10 16:13:10;;;;;;;2.47;1.50;;;;;;;;;;5043761;28;20179;-63
2021/06/10 16:15:57;;;;;;;3.90;1.95;;;;;;;;;;5052357;28;20045;-63
2021/06/10 16:18:43;;;;;;;6.03;1.60;;;;;;;;;;5052082;28;20418;-63
2021/06/10 16:21:29;;;;;;;5.35;1.70;;;;;;;;;;5052565;28;20049;-63
2021/06/10 16:24:14;;;;;;;3.85;2.17;;;;;;;;;;5050302;28;20491;-63
2021/06/10 16:26:59;;;;;;;5.60;2.10;;;;;;;;;;5042212;28;20045;-63
2021/06/10 16:29:45;;;;;;;3.67;1.90;;;;;;;;;;5052244;28;20080;-63